Time;durP1;ratioP1;P1;durP2;ratioP2;P2;SDS_P1;SDS_P2;PMS_P1;PMS_P2;Temp;Humidity;BMP_temperature;BMP_pressure;BME280_temperature;BME280_humidity;BME280_pressure;Samples;Min_cycle;Max_cycle;Signal;HPM_P1;HPM_P2
2021/07/31 00:00:11;;;;;;;6.13;4.13;;;17.80;99.90;;;;;;5048335;28;20029;-83
2021/07/31 00:02:36;;;;;;;10.13;4.57;;;17.70;99.90;;;;;;5049611;28;20033;-83
2021/07/31 00:05:02;;;;;;;8.00;4.40;;;17.70;99.90;;;;;;5049343;28;20045;-83
2021/07/31 00:07:28;;;;;;;7.32;4.45;;;17.70;99.90;;;;;;5043294;28;20131;-83
2021/07/31 00:09:53;;;;;;;6.25;4.15;;;17.70;99.90;;;;;;5044905;28;20112;-83
2021/07/31 00:12:19;;;;;;;5.90;4.38;;;17.60;99.90;;;;;;5023922;28;20025;-83
2021/07/31 00:14:44;;;;;;;4.15;3.70;;;17.60;99.90;;;;;;5025038;28;20059;-83
2021/07/31 00:17:10;;;;;;;4.82;3.95;;;17.50;99.90;;;;;;5031627;28;20784;-83
2021/07/31 00:19:35;;;;;;;7.53;4.28;;;17.50;99.90;;;;;;5049457;28;20043;-83
2021/07/31 00:22:02;;;;;;;4.90;4.00;;;17.40;99.90;;;;;;5043025;28;20194;-83
2021/07/31 00:24:28;;;;;;;7.15;4.05;;;17.50;99.90;;;;;;5044443;28;20036;-82
2021/07/31 00:26:55;;;;;;;6.00;4.18;;;17.30;99.90;;;;;;5047776;28;20553;-82
2021/07/31 00:29:20;;;;;;;5.97;4.22;;;17.30;99.90;;;;;;5031435;28;20485;-83
2021/07/31 00:31:46;;;;;;;6.65;4.32;;;17.30;99.90;;;;;;5030381;28;20113;-83
2021/07/31 00:34:11;;;;;;;6.00;4.32;;;17.20;99.90;;;;;;5048072;28;20394;-83
2021/07/31 00:36:37;;;;;;;6.55;4.53;;;17.20;99.90;;;;;;5027996;28;20038;-83
2021/07/31 00:39:03;;;;;;;5.07;3.90;;;17.20;99.90;;;;;;5042298;28;20025;-82
2021/07/31 00:41:28;;;;;;;6.55;4.85;;;17.20;99.90;;;;;;5048115;28;20529;-82
2021/07/31 00:43:54;;;;;;;5.70;4.38;;;17.10;99.90;;;;;;5041954;28;20124;-83
2021/07/31 00:46:19;;;;;;;6.28;5.07;;;17.10;99.90;;;;;;5048022;28;20064;-82
2021/07/31 00:48:45;;;;;;;6.28;4.20;;;17.00;99.90;;;;;;5047963;28;20041;-82
2021/07/31 00:51:12;;;;;;;6.38;4.30;;;17.00;99.90;;;;;;5034168;28;20037;-82
2021/07/31 00:53:38;;;;;;;7.57;4.40;;;17.00;99.90;;;;;;5048121;28;20057;-82
2021/07/31 00:56:04;;;;;;;5.55;4.30;;;16.90;99.90;;;;;;5047645;28;20391;-82
2021/07/31 00:58:31;;;;;;;4.97;3.90;;;16.90;99.90;;;;;;5023020;28;20061;-83
2021/07/31 01:00:56;;;;;;;6.65;4.70;;;16.90;99.90;;;;;;5039252;28;20036;-83
2021/07/31 01:03:22;;;;;;;6.50;4.70;;;16.90;99.90;;;;;;5029597;28;20021;-83
2021/07/31 01:05:48;;;;;;;5.30;4.30;;;16.90;99.90;;;;;;5047540;28;20056;-83
2021/07/31 01:08:13;;;;;;;7.78;4.30;;;16.90;99.90;;;;;;5040524;28;20498;-82
2021/07/31 01:10:39;;;;;;;5.47;4.72;;;16.90;99.90;;;;;;5037017;28;20135;-82
2021/07/31 01:13:05;;;;;;;7.28;4.57;;;16.80;99.90;;;;;;5035180;28;20034;-82
2021/07/31 01:15:31;;;;;;;7.20;4.60;;;16.80;99.90;;;;;;5046381;28;20478;-83
2021/07/31 01:17:56;;;;;;;9.30;4.88;;;16.80;99.90;;;;;;5038272;28;20037;-83
2021/07/31 01:20:23;;;;;;;6.53;4.22;;;16.80;99.90;;;;;;5044572;28;20032;-83
2021/07/31 01:22:49;;;;;;;8.15;5.30;;;16.90;99.90;;;;;;5047615;28;20071;-83
2021/07/31 01:25:15;;;;;;;7.65;4.80;;;16.90;99.90;;;;;;5029316;28;20033;-83
2021/07/31 01:27:41;;;;;;;6.97;5.68;;;16.90;99.90;;;;;;5043472;28;20383;-83
2021/07/31 01:30:08;;;;;;;6.65;4.90;;;16.90;99.90;;;;;;5040657;28;20048;-83
2021/07/31 01:32:33;;;;;;;8.88;5.63;;;16.80;99.90;;;;;;5023186;28;20040;-83
2021/07/31 01:34:59;;;;;;;5.20;4.65;;;16.80;99.90;;;;;;5028708;28;20029;-83
2021/07/31 01:37:24;;;;;;;5.57;4.80;;;16.80;99.90;;;;;;5036595;28;20067;-82
2021/07/31 01:39:50;;;;;;;7.10;4.57;;;16.90;99.90;;;;;;5031307;28;20037;-82
2021/07/31 01:42:16;;;;;;;9.00;4.65;;;16.80;99.90;;;;;;5047367;28;20125;-83
2021/07/31 01:44:42;;;;;;;5.32;4.43;;;16.90;99.90;;;;;;5046406;28;20025;-83
2021/07/31 01:47:07;;;;;;;7.07;4.80;;;16.90;99.90;;;;;;5023057;28;20044;-83
2021/07/31 01:49:33;;;;;;;5.53;4.82;;;16.90;99.90;;;;;;5041342;28;20059;-82
2021/07/31 01:51:59;;;;;;;6.88;5.10;;;16.90;99.90;;;;;;5014850;28;20045;-82
2021/07/31 01:54:25;;;;;;;6.25;5.13;;;16.90;99.90;;;;;;5046636;28;20139;-83
2021/07/31 01:56:50;;;;;;;6.53;4.95;;;16.90;99.90;;;;;;5047448;28;20044;-82
2021/07/31 01:59:16;;;;;;;7.10;5.35;;;16.90;99.90;;;;;;5047878;28;20037;-83
2021/07/31 02:01:42;;;;;;;6.68;4.95;;;17.00;99.90;;;;;;5026870;28;20025;-83
2021/07/31 02:04:08;;;;;;;10.10;4.88;;;17.00;99.90;;;;;;5047163;28;20485;-83
2021/07/31 02:06:33;;;;;;;6.93;4.65;;;17.00;99.90;;;;;;5047019;28;20037;-83
2021/07/31 02:08:59;;;;;;;6.72;5.13;;;17.00;99.90;;;;;;5047080;28;20549;-83
2021/07/31 02:11:25;;;;;;;6.50;4.78;;;17.00;99.90;;;;;;5046662;28;20032;-83
2021/07/31 02:13:51;;;;;;;6.97;4.63;;;17.00;99.90;;;;;;5033899;28;20100;-83
2021/07/31 02:16:23;;;;;;;5.10;4.45;;;17.00;99.90;;;;;;5047090;28;20040;-83
2021/07/31 02:18:49;;;;;;;5.93;4.43;;;17.00;99.90;;;;;;5046480;28;20025;-83
2021/07/31 02:21:15;;;;;;;6.43;4.63;;;17.00;99.90;;;;;;5046936;28;20025;-83
2021/07/31 02:23:40;;;;;;;6.90;4.80;;;17.00;99.90;;;;;;5047159;28;20031;-83
2021/07/31 02:26:06;;;;;;;5.75;4.40;;;17.00;99.90;;;;;;5040955;28;20114;-83
2021/07/31 02:28:31;;;;;;;6.85;4.68;;;17.00;99.90;;;;;;5028521;28;20072;-83
2021/07/31 02:30:57;;;;;;;5.53;4.38;;;17.00;99.90;;;;;;5026733;28;20065;-83
2021/07/31 02:33:22;;;;;;;7.75;4.80;;;17.10;99.90;;;;;;5048264;28;20029;-83
2021/07/31 02:35:51;;;;;;;7.13;4.85;;;17.00;99.90;;;;;;5047812;28;20377;-83
2021/07/31 02:38:16;;;;;;;7.97;4.75;;;17.00;99.90;;;;;;5046692;28;20040;-83
2021/07/31 02:40:42;;;;;;;5.75;4.20;;;17.10;99.90;;;;;;5046536;28;20055;-83
2021/07/31 02:43:07;;;;;;;6.13;4.25;;;17.10;99.90;;;;;;5047063;28;20025;-83
2021/07/31 02:45:35;;;;;;;7.85;4.55;;;17.10;99.90;;;;;;5047417;28;20044;-83
2021/07/31 02:48:02;;;;;;;6.47;4.32;;;17.10;99.90;;;;;;5047302;28;20782;-83
2021/07/31 02:50:29;;;;;;;5.68;4.60;;;17.10;99.90;;;;;;5039106;28;20030;-83
2021/07/31 02:52:54;;;;;;;6.85;4.53;;;17.10;99.90;;;;;;5031690;28;20068;-84
2021/07/31 02:55:20;;;;;;;7.20;4.70;;;17.10;99.90;;;;;;5047180;28;20021;-83
2021/07/31 02:57:45;;;;;;;5.25;4.30;;;17.10;99.90;;;;;;5041663;28;20046;-83
2021/07/31 03:00:11;;;;;;;5.85;4.70;;;17.00;99.90;;;;;;5038703;28;20462;-83
2021/07/31 03:02:37;;;;;;;8.57;4.88;;;17.10;99.90;;;;;;5030227;28;20470;-83
2021/07/31 03:05:03;;;;;;;7.30;4.78;;;17.10;99.90;;;;;;5047527;28;20112;-83
2021/07/31 03:07:28;;;;;;;8.38;4.50;;;17.00;99.90;;;;;;5043044;28;20036;-83
2021/07/31 03:09:54;;;;;;;6.82;4.43;;;17.00;99.90;;;;;;5042282;28;20498;-83
2021/07/31 03:12:20;;;;;;;5.50;4.47;;;17.00;99.90;;;;;;5029433;28;20079;-83
2021/07/31 03:14:45;;;;;;;9.98;4.70;;;17.00;99.90;;;;;;5047487;28;20044;-83
2021/07/31 03:17:11;;;;;;;8.93;4.57;;;16.90;99.90;;;;;;5047591;28;20029;-83
2021/07/31 03:19:36;;;;;;;5.72;4.22;;;16.90;99.90;;;;;;5029252;28;20394;-83
2021/07/31 03:22:05;;;;;;;8.70;4.63;;;16.90;99.90;;;;;;5046602;28;20091;-83
2021/07/31 03:24:31;;;;;;;8.60;4.50;;;16.90;99.90;;;;;;5037860;28;20553;-83
2021/07/31 03:26:57;;;;;;;5.28;4.57;;;16.80;99.90;;;;;;5041149;28;20041;-83
2021/07/31 03:29:23;;;;;;;9.82;4.90;;;16.80;99.90;;;;;;5028768;28;20071;-83
2021/07/31 03:31:51;;;;;;;6.43;4.65;;;16.80;99.90;;;;;;5046588;28;20064;-83
2021/07/31 03:34:17;;;;;;;6.93;4.80;;;16.70;99.90;;;;;;5046110;28;20025;-83
2021/07/31 03:36:43;;;;;;;6.75;4.80;;;16.70;99.90;;;;;;5028127;28;20434;-83
2021/07/31 03:39:08;;;;;;;5.03;4.47;;;16.70;99.90;;;;;;5046296;28;20032;-83
2021/07/31 03:41:34;;;;;;;5.18;4.40;;;16.70;99.90;;;;;;5048202;28;20017;-83
2021/07/31 03:43:59;;;;;;;8.07;4.78;;;16.70;99.90;;;;;;5050282;28;20591;-83
2021/07/31 03:46:25;;;;;;;6.07;4.65;;;16.70;99.90;;;;;;5050468;28;20029;-83
2021/07/31 03:48:50;;;;;;;7.32;4.78;;;16.70;99.90;;;;;;5050205;28;20037;-83
2021/07/31 03:51:16;;;;;;;7.47;5.20;;;16.60;99.90;;;;;;5039473;28;20033;-83
2021/07/31 03:53:41;;;;;;;10.13;4.97;;;16.60;99.90;;;;;;5040262;28;20510;-83
2021/07/31 03:56:07;;;;;;;9.65;5.10;;;16.70;99.90;;;;;;5046106;28;20054;-83
2021/07/31 03:58:33;;;;;;;6.78;5.30;;;16.70;99.90;;;;;;5051355;28;20025;-83
2021/07/31 04:00:59;;;;;;;8.27;5.40;;;16.70;99.90;;;;;;5050809;28;20025;-83
2021/07/31 04:03:24;;;;;;;9.68;4.82;;;16.60;99.90;;;;;;5050196;28;20025;-83
2021/07/31 04:05:50;;;;;;;5.43;4.65;;;16.70;99.90;;;;;;5033128;28;20504;-83
2021/07/31 04:08:16;;;;;;;7.97;4.82;;;16.70;99.90;;;;;;5050437;28;20049;-83
2021/07/31 04:10:41;;;;;;;6.68;5.10;;;16.70;99.90;;;;;;5050594;28;20024;-83
2021/07/31 04:13:07;;;;;;;5.80;5.07;;;16.60;99.90;;;;;;5038224;28;20056;-83
2021/07/31 04:15:33;;;;;;;6.57;4.80;;;16.70;99.90;;;;;;5039621;28;20021;-83
2021/07/31 04:17:58;;;;;;;9.10;5.30;;;16.70;99.90;;;;;;5035670;28;20025;-83
2021/07/31 04:20:24;;;;;;;5.95;5.00;;;16.80;99.90;;;;;;5032803;28;20037;-83
2021/07/31 04:22:50;;;;;;;8.10;5.32;;;16.80;99.90;;;;;;5050202;28;20048;-83
2021/07/31 04:25:15;;;;;;;6.63;4.97;;;16.80;99.90;;;;;;5032478;28;20025;-83
2021/07/31 04:27:41;;;;;;;8.90;4.93;;;16.80;99.90;;;;;;5024247;28;20033;-83
2021/07/31 04:30:07;;;;;;;5.55;4.93;;;16.90;99.90;;;;;;5048551;28;20460;-83
2021/07/31 04:32:32;;;;;;;8.15;5.43;;;16.90;99.90;;;;;;5047274;28;20021;-83
2021/07/31 04:34:58;;;;;;;13.25;5.65;;;16.90;99.90;;;;;;5040530;28;20020;-83
2021/07/31 04:37:23;;;;;;;8.20;4.97;;;16.80;99.90;;;;;;5041885;28;20025;-83
2021/07/31 04:39:49;;;;;;;6.55;4.65;;;16.80;99.90;;;;;;5039569;28;20021;-83
2021/07/31 04:42:15;;;;;;;9.57;5.13;;;16.80;99.90;;;;;;5040459;28;20043;-82
2021/07/31 04:44:40;;;;;;;16.75;5.13;;;16.80;99.90;;;;;;5043544;28;20029;-82
2021/07/31 04:47:08;;;;;;;6.40;5.00;;;16.80;99.90;;;;;;5024877;28;20047;-82
2021/07/31 04:49:36;;;;;;;12.07;5.03;;;16.90;99.90;;;;;;5038923;28;20141;-82
2021/07/31 04:52:05;;;;;;;10.20;5.68;;;16.90;99.90;;;;;;5045913;28;20102;-82
2021/07/31 04:54:30;;;;;;;7.43;5.10;;;16.90;99.90;;;;;;5041437;28;20847;-82
2021/07/31 04:56:56;;;;;;;7.28;5.07;;;17.00;99.90;;;;;;5044229;28;20107;-83
2021/07/31 04:59:21;;;;;;;8.55;4.93;;;17.10;99.90;;;;;;5027092;28;20036;-83
2021/07/31 05:01:47;;;;;;;7.45;4.57;;;17.20;99.90;;;;;;5044745;28;20030;-83
2021/07/31 05:04:12;;;;;;;7.20;4.88;;;17.30;99.90;;;;;;5019441;28;20382;-83
2021/07/31 05:06:38;;;;;;;8.35;4.65;;;17.40;99.90;;;;;;5044942;28;20032;-83
2021/07/31 05:09:05;;;;;;;8.90;4.63;;;17.50;99.90;;;;;;5042950;28;20478;-82
2021/07/31 05:11:30;;;;;;;7.50;4.78;;;17.50;99.90;;;;;;5025861;28;20108;-75
2021/07/31 05:13:56;;;;;;;7.38;4.78;;;17.60;99.90;;;;;;5041018;28;20540;-72
2021/07/31 05:16:22;;;;;;;8.73;5.10;;;17.60;99.90;;;;;;5042905;28;20034;-73
2021/07/31 05:18:47;;;;;;;5.40;4.13;;;17.70;99.90;;;;;;5038536;28;20017;-72
2021/07/31 05:21:13;;;;;;;6.22;4.25;;;17.80;99.90;;;;;;5038483;28;20100;-75
2021/07/31 05:23:39;;;;;;;10.05;5.13;;;17.80;99.90;;;;;;5042092;28;20049;-75
2021/07/31 05:26:09;;;;;;;8.32;4.68;;;17.90;99.90;;;;;;5037890;28;20078;-75
2021/07/31 05:28:34;;;;;;;6.90;4.97;;;18.00;99.90;;;;;;5024536;28;20032;-75
2021/07/31 05:31:00;;;;;;;6.15;4.50;;;18.10;99.90;;;;;;5037277;28;20028;-75
2021/07/31 05:33:26;;;;;;;5.72;4.18;;;18.10;99.90;;;;;;5038999;28;20067;-75
2021/07/31 05:35:52;;;;;;;5.43;4.30;;;18.10;99.90;;;;;;5043261;28;20056;-75
2021/07/31 05:38:18;;;;;;;6.13;4.57;;;18.10;99.90;;;;;;5045845;28;20013;-76
2021/07/31 05:40:43;;;;;;;4.95;4.28;;;18.20;99.90;;;;;;5044591;28;20454;-76
2021/07/31 05:43:09;;;;;;;5.53;3.95;;;18.20;99.90;;;;;;5033782;28;20025;-76
2021/07/31 05:45:34;;;;;;;8.18;5.00;;;18.20;99.90;;;;;;5033591;28;20025;-76
2021/07/31 05:48:00;;;;;;;6.18;4.70;;;18.20;99.90;;;;;;5033692;28;20030;-76
2021/07/31 05:50:26;;;;;;;5.78;4.60;;;18.20;99.90;;;;;;5030978;28;20041;-76
2021/07/31 05:52:51;;;;;;;6.35;4.93;;;18.30;99.90;;;;;;5039494;28;20398;-76
2021/07/31 05:55:17;;;;;;;7.05;4.82;;;18.40;99.90;;;;;;5041506;28;20075;-76
2021/07/31 05:57:42;;;;;;;5.88;4.53;;;18.60;99.90;;;;;;5033012;28;20545;-75
2021/07/31 06:00:08;;;;;;;5.13;4.18;;;18.80;99.90;;;;;;5035927;28;20021;-75
2021/07/31 06:02:34;;;;;;;6.40;4.13;;;18.90;99.90;;;;;;5037368;28;20021;-76
2021/07/31 06:05:00;;;;;;;5.38;4.15;;;19.10;99.90;;;;;;5029252;28;20026;-75
2021/07/31 06:07:25;;;;;;;5.35;4.22;;;19.20;99.90;;;;;;5028543;28;20371;-78
2021/07/31 06:09:53;;;;;;;6.22;4.43;;;19.40;99.90;;;;;;5027716;28;20478;-77
2021/07/31 06:12:19;;;;;;;5.57;4.30;;;19.50;99.90;;;;;;5030286;28;20030;-76
2021/07/31 06:14:45;;;;;;;6.20;4.10;;;19.50;99.90;;;;;;5032911;28;20089;-76
2021/07/31 06:17:10;;;;;;;5.07;3.95;;;19.50;99.90;;;;;;5032522;28;20029;-75
2021/07/31 06:19:36;;;;;;;5.82;4.10;;;19.60;99.90;;;;;;5028139;28;20087;-75
2021/07/31 06:22:02;;;;;;;5.60;4.30;;;19.40;99.90;;;;;;5027219;28;20032;-76
2021/07/31 06:24:28;;;;;;;5.68;4.38;;;19.40;99.90;;;;;;5027526;28;20029;-75
2021/07/31 06:26:54;;;;;;;5.53;4.45;;;19.40;99.90;;;;;;5027906;28;20715;-76
2021/07/31 06:29:20;;;;;;;7.07;4.55;;;19.40;99.90;;;;;;5027347;28;20088;-76
2021/07/31 06:31:46;;;;;;;5.90;4.90;;;19.30;99.90;;;;;;5026804;28;20394;-76
2021/07/31 06:34:11;;;;;;;4.75;4.18;;;19.20;99.90;;;;;;5021921;28;20458;-73
2021/07/31 06:36:37;;;;;;;5.53;4.15;;;19.30;99.90;;;;;;5018935;28;20036;-73
2021/07/31 06:39:04;;;;;;;6.60;4.00;;;19.20;99.90;;;;;;5026832;28;20478;-73
2021/07/31 06:41:29;;;;;;;8.90;4.60;;;19.30;99.90;;;;;;5027071;28;20010;-73
2021/07/31 06:43:56;;;;;;;6.93;3.90;;;19.30;99.90;;;;;;5027770;28;20037;-73
2021/07/31 06:46:24;;;;;;;8.32;4.50;;;19.20;99.90;;;;;;5026439;28;20100;-73
2021/07/31 06:48:54;;;;;;;6.00;4.60;;;19.30;99.90;;;;;;5031432;28;20025;-73
2021/07/31 06:51:20;;;;;;;7.35;4.50;;;19.30;99.90;;;;;;5034605;28;21475;-73
2021/07/31 06:53:47;;;;;;;6.95;4.63;;;19.40;99.90;;;;;;5024016;28;20049;-73
2021/07/31 06:56:13;;;;;;;6.68;4.45;;;19.50;99.90;;;;;;5034146;28;20468;-73
2021/07/31 06:58:39;;;;;;;6.03;4.43;;;19.50;99.90;;;;;;5028506;28;20055;-73
2021/07/31 07:01:09;;;;;;;5.88;4.50;;;19.60;99.90;;;;;;5028355;28;20094;-73
2021/07/31 07:03:35;;;;;;;5.53;4.45;;;19.50;99.90;;;;;;5013916;28;20018;-73
2021/07/31 07:06:07;;;;;;;11.20;5.03;;;19.50;99.90;;;;;;5029601;28;20033;-73
2021/07/31 07:08:33;;;;;;;6.85;4.72;;;19.60;99.90;;;;;;5023932;28;20355;-72
2021/07/31 07:11:03;;;;;;;6.00;4.38;;;19.70;99.90;;;;;;5016931;28;20068;-73
2021/07/31 07:13:29;;;;;;;5.93;4.70;;;19.90;99.90;;;;;;5030376;28;20018;-72
2021/07/31 07:15:55;;;;;;;5.10;4.22;;;20.00;99.90;;;;;;5032132;28;20099;-73
2021/07/31 07:18:21;;;;;;;7.07;4.43;;;20.00;99.90;;;;;;5033655;28;20364;-73
2021/07/31 07:20:48;;;;;;;5.80;4.53;;;20.10;99.90;;;;;;5032307;28;20064;-73
2021/07/31 07:23:15;;;;;;;6.35;4.35;;;20.20;99.90;;;;;;5033494;28;20083;-79
2021/07/31 07:25:44;;;;;;;7.90;4.50;;;20.30;99.90;;;;;;5033148;28;20092;-72
2021/07/31 07:28:10;;;;;;;6.28;4.70;;;20.40;99.90;;;;;;5041943;28;20528;-72
2021/07/31 07:30:35;;;;;;;4.97;4.10;;;20.50;99.90;;;;;;5030455;28;20034;-72
2021/07/31 07:33:02;;;;;;;5.88;4.15;;;20.50;99.90;;;;;;5034829;28;20112;-72
2021/07/31 07:35:29;;;;;;;5.20;4.43;;;20.50;99.90;;;;;;5033339;28;20025;-72
2021/07/31 07:37:55;;;;;;;6.35;4.22;;;20.30;99.90;;;;;;5032724;28;20078;-73
2021/07/31 07:40:21;;;;;;;4.60;3.83;;;20.20;99.90;;;;;;5032983;28;20026;-72
2021/07/31 07:42:46;;;;;;;5.22;4.28;;;20.20;99.90;;;;;;5023443;28;20458;-79
2021/07/31 07:45:12;;;;;;;6.68;4.30;;;20.10;99.90;;;;;;5035451;28;20040;-79
2021/07/31 07:47:37;;;;;;;6.65;4.50;;;20.10;99.90;;;;;;5033507;28;20091;-77
2021/07/31 07:50:05;;;;;;;6.88;4.38;;;20.10;99.90;;;;;;5035496;28;20112;-71
2021/07/31 07:52:30;;;;;;;8.02;4.60;;;20.20;99.90;;;;;;5035253;28;20104;-71
2021/07/31 07:54:56;;;;;;;11.60;5.47;;;20.30;99.90;;;;;;5035491;28;20415;-72
2021/07/31 07:57:22;;;;;;;6.93;4.45;;;20.30;99.90;;;;;;5035058;28;20186;-71
2021/07/31 07:59:47;;;;;;;6.28;3.97;;;20.40;99.90;;;;;;5036666;28;20028;-76
2021/07/31 08:02:15;;;;;;;5.25;3.85;;;20.60;99.90;;;;;;5033852;28;20045;-79
2021/07/31 08:04:41;;;;;;;5.28;4.10;;;20.70;99.90;;;;;;5037720;28;20028;-88
2021/07/31 08:07:07;;;;;;;6.25;3.75;;;20.70;99.90;;;;;;5040472;28;20119;-86
2021/07/31 08:09:35;;;;;;;7.38;3.63;;;20.90;99.90;;;;;;5029334;28;20033;-85
2021/07/31 08:12:00;;;;;;;5.13;3.78;;;20.90;99.90;;;;;;5011739;28;20029;-84
2021/07/31 08:14:26;;;;;;;4.85;3.80;;;20.90;99.90;;;;;;5029003;28;20030;-86
2021/07/31 08:16:52;;;;;;;5.05;3.63;;;20.90;99.90;;;;;;5029012;28;20041;-83
2021/07/31 08:19:17;;;;;;;6.40;3.65;;;21.00;99.90;;;;;;5028656;28;20460;-86
2021/07/31 08:21:43;;;;;;;7.25;3.70;;;21.10;99.90;;;;;;5031210;28;20025;-84
2021/07/31 08:24:08;;;;;;;5.18;3.95;;;21.10;99.90;;;;;;5027832;28;20091;-80
2021/07/31 08:26:34;;;;;;;5.72;3.85;;;21.20;99.90;;;;;;5025103;28;20028;-80
2021/07/31 08:28:59;;;;;;;5.95;3.67;;;21.30;99.90;;;;;;5024962;28;20049;-80
2021/07/31 08:31:25;;;;;;;9.77;3.83;;;21.30;99.90;;;;;;5025630;28;20777;-80
2021/07/31 08:33:51;;;;;;;5.78;3.45;;;21.30;99.90;;;;;;5025926;28;20075;-80
2021/07/31 08:36:17;;;;;;;5.13;3.65;;;21.40;99.90;;;;;;5025312;28;20083;-80
2021/07/31 08:38:42;;;;;;;5.15;3.60;;;21.60;99.90;;;;;;5025485;28;20029;-80
2021/07/31 08:41:08;;;;;;;5.03;3.78;;;21.80;99.90;;;;;;5025320;28;20599;-80
2021/07/31 08:43:34;;;;;;;5.82;4.40;;;21.90;99.90;;;;;;5018630;28;20017;-79
2021/07/31 08:46:07;;;;;;;5.03;3.85;;;21.90;99.90;;;;;;5025441;28;20063;-79
2021/07/31 08:48:33;;;;;;;7.30;4.47;;;21.80;99.90;;;;;;5025708;28;20025;-79
2021/07/31 08:51:00;;;;;;;9.13;4.10;;;21.80;99.90;;;;;;5021839;28;20403;-79
2021/07/31 08:53:30;;;;;;;5.65;3.65;;;21.80;99.90;;;;;;5023318;28;20041;-79
2021/07/31 08:55:59;;;;;;;9.10;4.05;;;21.80;99.90;;;;;;5023947;28;20052;-79
2021/07/31 08:58:25;;;;;;;4.60;3.75;;;21.90;99.90;;;;;;5022224;28;20051;-79
2021/07/31 09:00:52;;;;;;;6.68;3.88;;;22.00;99.90;;;;;;5036860;28;20816;-79
2021/07/31 09:03:18;;;;;;;7.05;3.90;;;21.90;99.90;;;;;;5044661;28;20025;-79
2021/07/31 09:05:43;;;;;;;4.70;3.40;;;22.00;99.90;;;;;;5027461;28;20028;-79
2021/07/31 09:08:10;;;;;;;7.38;3.70;;;21.80;99.90;;;;;;5044966;28;20041;-79
2021/07/31 09:10:40;;;;;;;5.22;4.03;;;21.90;99.90;;;;;;5040571;28;20033;-78
2021/07/31 09:13:12;;;;;;;6.50;4.07;;;21.90;99.90;;;;;;5014716;28;20049;-77
2021/07/31 09:15:42;;;;;;;8.18;4.10;;;21.90;99.90;;;;;;5015427;28;20358;-77
2021/07/31 09:18:32;;;;;;;7.40;4.22;;;22.00;99.90;;;;;;5014506;28;20080;-77
2021/07/31 09:21:10;;;;;;;7.07;3.95;;;22.10;99.90;;;;;;5014562;28;20022;-77
2021/07/31 09:23:41;;;;;;;6.78;3.53;;;22.20;99.90;;;;;;5014532;28;20516;-77
2021/07/31 09:26:07;;;;;;;6.10;3.58;;;22.20;99.90;;;;;;5014455;28;20022;-76
2021/07/31 09:28:38;;;;;;;6.05;3.75;;;22.30;99.90;;;;;;5014379;28;20103;-76
2021/07/31 09:31:03;;;;;;;6.25;3.95;;;22.30;99.90;;;;;;4997364;28;20359;-77
2021/07/31 09:33:29;;;;;;;5.43;3.60;;;22.40;99.90;;;;;;5014533;28;20030;-77
2021/07/31 09:36:03;;;;;;;6.97;4.10;;;22.40;99.90;;;;;;5014359;28;20045;-77
2021/07/31 09:38:49;;;;;;;6.72;3.95;;;22.50;99.90;;;;;;5014379;28;20022;-76
2021/07/31 09:41:36;;;;;;;6.90;3.90;;;22.40;99.90;;;;;;5010825;28;20068;-79
2021/07/31 09:44:15;;;;;;;7.57;3.90;;;22.40;99.90;;;;;;5038915;28;20013;-80
2021/07/31 09:46:46;;;;;;;5.85;3.65;;;22.40;99.90;;;;;;5053706;28;20461;-77
2021/07/31 09:49:20;;;;;;;4.78;3.42;;;22.20;99.90;;;;;;5053784;28;20029;-77
2021/07/31 09:51:48;;;;;;;5.78;3.42;;;22.20;99.90;;;;;;5054010;28;20044;-77
2021/07/31 09:54:16;;;;;;;8.82;4.18;;;22.20;99.90;;;;;;5044475;28;20493;-80
2021/07/31 09:56:51;;;;;;;4.97;3.47;;;22.00;99.90;;;;;;5034473;28;20044;-80
2021/07/31 09:59:22;;;;;;;5.05;3.90;;;22.00;99.90;;;;;;5017877;28;20420;-80
2021/07/31 10:01:49;;;;;;;7.80;3.70;;;22.00;99.90;;;;;;5025705;28;20056;-80
2021/07/31 10:04:16;;;;;;;6.93;3.67;;;21.90;99.90;;;;;;5043960;28;20043;-80
2021/07/31 10:06:42;;;;;;;6.50;3.33;;;21.90;99.90;;;;;;5043980;28;20029;-80
2021/07/31 10:09:08;;;;;;;5.07;3.60;;;22.00;99.90;;;;;;5020404;28;20046;-80
2021/07/31 10:11:36;;;;;;;7.82;3.78;;;22.00;99.90;;;;;;5025565;28;20036;-80
2021/07/31 10:14:03;;;;;;;5.22;4.30;;;22.00;99.90;;;;;;5004371;28;20098;-82
2021/07/31 10:16:30;;;;;;;7.43;3.80;;;22.10;99.90;;;;;;5044738;28;20077;-83
2021/07/31 10:18:58;;;;;;;7.97;3.83;;;22.40;99.90;;;;;;5050753;28;20021;-76
2021/07/31 10:21:25;;;;;;;4.47;3.33;;;22.60;99.90;;;;;;5033697;28;20359;-83
2021/07/31 10:24:02;;;;;;;5.35;3.53;;;22.90;99.90;;;;;;5047903;28;20032;-75
2021/07/31 10:26:29;;;;;;;5.05;3.60;;;23.20;99.90;;;;;;5029257;28;20025;-76
2021/07/31 10:29:15;;;;;;;4.25;3.03;;;23.40;99.90;;;;;;5033757;28;20029;-76
2021/07/31 10:31:40;;;;;;;5.00;3.40;;;23.70;99.90;;;;;;5010070;28;20026;-77
2021/07/31 10:34:06;;;;;;;6.10;3.38;;;23.50;99.90;;;;;;5036597;28;20830;-76
2021/07/31 10:36:38;;;;;;;6.18;3.42;;;23.30;99.90;;;;;;5019509;28;20048;-76
2021/07/31 10:39:25;;;;;;;7.10;3.38;;;23.30;99.90;;;;;;5033488;28;20017;-77
2021/07/31 10:41:59;;;;;;;5.57;3.22;;;23.50;99.90;;;;;;5030003;28;20021;-77
2021/07/31 10:44:26;;;;;;;5.90;3.08;;;23.70;99.90;;;;;;5015913;28;20127;-77
2021/07/31 10:47:34;;;;;;;4.28;3.20;;;23.80;99.90;;;;;;5041573;28;20071;-77
2021/07/31 10:49:59;;;;;;;4.38;2.80;;;24.10;99.90;;;;;;5008254;28;20041;-76
2021/07/31 10:52:54;;;;;;;3.72;2.78;;;24.60;99.90;;;;;;5044879;28;20033;-76
2021/07/31 10:55:27;;;;;;;3.70;2.92;;;25.00;99.90;;;;;;5030899;28;20033;-76
2021/07/31 10:57:52;;;;;;;6.07;3.15;;;25.60;99.90;;;;;;5029964;28;20025;-76
2021/07/31 11:00:41;;;;;;;3.92;2.75;;;25.90;99.90;;;;;;5040667;28;20070;-76
2021/07/31 11:03:15;;;;;;;4.43;2.63;;;26.00;99.90;;;;;;5035111;28;20037;-76
2021/07/31 11:06:00;;;;;;;5.75;2.88;;;26.10;99.90;;;;;;5032355;28;20021;-75
2021/07/31 11:08:27;;;;;;;3.63;2.80;;;26.40;99.90;;;;;;5031808;28;20041;-75
2021/07/31 11:10:55;;;;;;;8.32;2.95;;;26.60;99.90;;;;;;5042246;28;20071;-75
2021/07/31 11:13:20;;;;;;;3.25;2.50;;;26.00;99.90;;;;;;5018342;28;20022;-75
2021/07/31 11:16:09;;;;;;;7.15;2.97;;;25.60;99.90;;;;;;5038613;28;20488;-82
2021/07/31 11:18:42;;;;;;;5.80;2.97;;;25.50;99.90;;;;;;5020440;28;20039;-72
2021/07/31 11:21:11;;;;;;;5.20;2.83;;;25.30;99.90;;;;;;5044211;28;20462;-72
2021/07/31 11:23:53;;;;;;;31.35;14.07;;;25.20;99.90;;;;;;5038527;28;20028;-73
2021/07/31 11:26:37;;;;;;;12.35;5.25;;;24.90;99.90;;;;;;5032037;28;20033;-72
2021/07/31 11:29:11;;;;;;;3.75;2.75;;;24.70;99.90;;;;;;5030518;28;20034;-72
2021/07/31 11:31:38;;;;;;;15.93;5.93;;;24.30;99.90;;;;;;5013833;28;20083;-73
2021/07/31 11:34:09;;;;;;;14.60;6.28;;;24.40;99.90;;;;;;5031761;28;20034;-72
2021/07/31 11:36:42;;;;;;;8.50;4.10;;;24.30;99.90;;;;;;5029609;28;20030;-75
2021/07/31 11:39:11;;;;;;;23.80;9.98;;;24.30;99.90;;;;;;5026637;28;20025;-76
2021/07/31 11:41:42;;;;;;;16.17;6.25;;;24.30;99.90;;;;;;5033708;28;20032;-76
2021/07/31 11:44:08;;;;;;;12.68;4.75;;;24.30;99.90;;;;;;5039716;28;20017;-75
2021/07/31 11:46:37;;;;;;;103.82;30.45;;;24.20;99.90;;;;;;5037844;28;20033;-75
2021/07/31 11:49:05;;;;;;;6.97;4.15;;;24.10;99.90;;;;;;5040337;28;20025;-76
2021/07/31 11:51:31;;;;;;;4.68;2.90;;;24.00;99.90;;;;;;5038473;28;20055;-78
2021/07/31 11:54:05;;;;;;;17.52;5.68;;;23.80;99.90;;;;;;5034725;28;20091;-76
2021/07/31 11:56:31;;;;;;;4.90;2.80;;;23.80;99.90;;;;;;5029874;28;20480;-75
2021/07/31 11:58:58;;;;;;;11.05;4.55;;;23.80;99.90;;;;;;5040446;28;20040;-75
2021/07/31 12:01:24;;;;;;;5.88;3.17;;;23.80;99.90;;;;;;5044667;28;20489;-75
2021/07/31 12:03:55;;;;;;;4.68;2.70;;;23.80;99.90;;;;;;5041853;28;20135;-75
2021/07/31 12:06:36;;;;;;;7.28;2.97;;;23.80;99.90;;;;;;5033443;28;20022;-72
2021/07/31 12:09:22;;;;;;;4.50;2.60;;;23.80;99.90;;;;;;5034947;28;20377;-72
2021/07/31 12:11:51;;;;;;;4.65;2.72;;;23.70;99.90;;;;;;5035198;28;20033;-72
2021/07/31 12:14:30;;;;;;;3.50;2.50;;;23.90;99.90;;;;;;5016818;28;20052;-72
2021/07/31 12:17:23;;;;;;;5.75;3.28;;;23.90;99.90;;;;;;5052904;28;20082;-72
2021/07/31 12:19:52;;;;;;;5.85;2.67;;;24.10;99.90;;;;;;5040670;28;20021;-72
2021/07/31 12:22:34;;;;;;;21.30;7.25;;;24.30;99.90;;;;;;5003279;28;20018;-72
2021/07/31 12:25:15;;;;;;;3.47;2.60;;;24.30;99.90;;;;;;5034921;28;20033;-72
2021/07/31 12:28:00;;;;;;;4.05;2.85;;;24.40;99.90;;;;;;5035139;28;20030;-72
2021/07/31 12:30:37;;;;;;;4.82;2.70;;;24.40;99.90;;;;;;5034957;28;20079;-72
2021/07/31 12:33:16;;;;;;;5.10;2.42;;;24.30;99.90;;;;;;5034647;28;20028;-71
2021/07/31 12:35:51;;;;;;;5.30;2.60;;;24.30;99.90;;;;;;5034649;28;20096;-71
2021/07/31 12:38:20;;;;;;;3.47;2.60;;;24.20;99.90;;;;;;5034597;28;20203;-71
2021/07/31 12:40:50;;;;;;;4.20;2.50;;;24.20;99.90;;;;;;5034747;28;20093;-73
2021/07/31 12:43:19;;;;;;;5.50;3.17;;;24.40;99.90;;;;;;5035005;28;20033;-74
2021/07/31 12:45:46;;;;;;;3.92;2.50;;;24.40;99.90;;;;;;5017400;28;20394;-79
2021/07/31 12:48:15;;;;;;;3.78;2.40;;;24.20;99.90;;;;;;5033897;28;20021;-77